Bologna / Borgo Panigale Airport LIPE

Flugplatz Daten

Name: Bologna / Borgo Panigale Airport

Ident: LIPE

Lat: 44,53540039

Long: 11,2887001

Platzhöhe: 123 ft

IataCode: BLQ

City: Bologna

Homepage: http://www.bologna-airport.it/?LN=UK

Metar

2021/08/05 14:50
LIPE 051450Z 22014KT 9999 FEW040TCU SCT050 27/14 Q1006

Taf

2021/08/05 12:21
TAF LIPE 051100Z 0512/0612 30006KT 9999 FEW030 PROB40
TEMPO 0512/0516 TSRA
BECMG 0515/0517 22010KT
BECMG 0522/0524 VRB05KT
Gewünschte Webcam nicht vorhanden? Dann fügen Sie eine hinzu. Sie wird dann so schnell wie möglich freigeschaltet
Url: Title: